createdAt,value
2018-03-31T00:01:45.268Z,99.90
2018-03-31T00:04:19.203Z,99.90
2018-03-31T00:06:55.394Z,99.90
2018-03-31T00:09:22.648Z,99.90
2018-03-31T00:11:59.089Z,99.90
2018-03-31T00:14:26.079Z,99.90
2018-03-31T00:16:52.659Z,99.90
2018-03-31T00:19:19.185Z,99.90
2018-03-31T00:21:47.636Z,99.90
2018-03-31T00:24:16.019Z,99.90
2018-03-31T00:26:42.772Z,99.90
2018-03-31T00:29:10.264Z,99.90
2018-03-31T00:31:36.967Z,99.90
2018-03-31T00:34:03.500Z,99.90
2018-03-31T00:36:30.083Z,99.90
2018-03-31T00:38:56.712Z,99.90
2018-03-31T00:41:24.061Z,99.90
2018-03-31T00:43:51.378Z,99.90
2018-03-31T00:46:17.969Z,99.90
2018-03-31T00:48:45.223Z,99.90
2018-03-31T00:51:12.556Z,99.90
2018-03-31T00:53:39.140Z,99.90
2018-03-31T00:56:05.653Z,99.90
2018-03-31T00:58:32.986Z,99.90
2018-03-31T01:00:59.574Z,99.90
2018-03-31T01:03:26.084Z,99.90
2018-03-31T01:05:54.839Z,99.90
2018-03-31T01:08:22.181Z,99.90
2018-03-31T01:10:48.683Z,99.90
2018-03-31T01:13:15.302Z,99.90
2018-03-31T01:15:42.581Z,99.90
2018-03-31T01:18:09.123Z,99.90
2018-03-31T01:20:35.704Z,99.90
2018-03-31T01:23:02.227Z,99.90
2018-03-31T01:25:28.815Z,99.90
2018-03-31T01:27:55.400Z,99.90
2018-03-31T01:30:21.988Z,99.90
2018-03-31T01:32:48.486Z,99.90
2018-03-31T01:35:15.058Z,99.90
2018-03-31T01:37:42.371Z,99.90
2018-03-31T01:40:08.878Z,99.90
2018-03-31T01:42:35.451Z,99.90
2018-03-31T01:45:02.031Z,99.90
2018-03-31T01:47:28.619Z,99.90
2018-03-31T01:49:55.195Z,99.90
2018-03-31T01:52:22.512Z,99.90
2018-03-31T01:54:49.119Z,99.90
2018-03-31T01:57:15.711Z,99.90
2018-03-31T01:59:42.282Z,99.90
2018-03-31T02:02:08.810Z,99.90
2018-03-31T02:04:35.394Z,99.90
2018-03-31T02:07:01.936Z,99.90
2018-03-31T02:12:07.711Z,99.90
2018-03-31T02:14:34.212Z,99.90
2018-03-31T02:17:00.787Z,99.90
2018-03-31T02:19:27.306Z,99.90
2018-03-31T02:21:53.893Z,99.90
2018-03-31T02:24:20.409Z,99.90
2018-03-31T02:26:47.008Z,99.90
2018-03-31T02:29:13.639Z,99.90
2018-03-31T02:31:40.157Z,99.90
2018-03-31T02:34:06.769Z,99.90
2018-03-31T02:36:34.097Z,99.90
2018-03-31T02:39:00.706Z,99.90
2018-03-31T02:41:27.700Z,99.90
2018-03-31T02:43:54.355Z,99.90
2018-03-31T02:46:20.955Z,99.90
2018-03-31T02:48:47.467Z,99.90
2018-03-31T02:51:14.051Z,99.90
2018-03-31T02:53:40.555Z,99.90
2018-03-31T02:56:07.158Z,99.90
2018-03-31T02:58:33.741Z,99.90
2018-03-31T03:01:00.335Z,99.90
2018-03-31T03:03:26.852Z,99.90
2018-03-31T03:05:54.202Z,99.90
2018-03-31T03:08:20.735Z,99.90
2018-03-31T03:10:47.252Z,99.90
2018-03-31T03:13:13.825Z,99.90
2018-03-31T03:15:40.340Z,99.90
2018-03-31T03:18:06.960Z,99.90
2018-03-31T03:20:33.479Z,99.90
2018-03-31T03:23:00.000Z,99.90
2018-03-31T03:25:26.587Z,99.90
2018-03-31T03:27:53.866Z,99.90
2018-03-31T03:30:20.465Z,99.90
2018-03-31T03:32:47.051Z,99.90
2018-03-31T03:35:13.635Z,99.90
2018-03-31T03:37:40.229Z,99.90
2018-03-31T03:40:06.920Z,99.90
2018-03-31T03:42:33.424Z,99.90
2018-03-31T03:44:59.998Z,99.90
2018-03-31T03:47:26.578Z,99.90
2018-03-31T03:49:53.082Z,99.90
2018-03-31T03:52:20.409Z,99.90
2018-03-31T03:54:46.916Z,99.90
2018-03-31T03:57:13.497Z,99.90
2018-03-31T03:59:40.074Z,99.90
2018-03-31T04:02:06.719Z,99.90
2018-03-31T04:04:33.467Z,99.90
2018-03-31T04:07:00.130Z,99.90
2018-03-31T04:09:26.767Z,99.90
2018-03-31T04:11:53.282Z,99.90
2018-03-31T04:14:19.876Z,99.90
2018-03-31T04:16:46.459Z,99.90
2018-03-31T04:19:12.986Z,99.90
2018-03-31T04:21:39.561Z,99.90
2018-03-31T04:24:06.063Z,99.90
2018-03-31T04:26:33.186Z,99.90
2018-03-31T04:29:06.708Z,99.90
2018-03-31T04:31:33.611Z,99.90
2018-03-31T04:34:00.116Z,99.90
2018-03-31T04:36:26.700Z,99.90
2018-03-31T04:38:53.967Z,99.90
2018-03-31T04:41:21.235Z,99.90
2018-03-31T04:43:47.827Z,99.90
2018-03-31T04:46:14.341Z,99.90
2018-03-31T04:48:40.872Z,99.90
2018-03-31T04:51:07.526Z,99.90
2018-03-31T04:53:34.055Z,99.90
2018-03-31T04:56:00.557Z,99.90
2018-03-31T04:58:27.139Z,99.90
2018-03-31T05:00:53.648Z,99.90
2018-03-31T05:03:20.300Z,99.90
2018-03-31T05:05:46.893Z,99.90
2018-03-31T05:08:14.229Z,99.90
2018-03-31T05:10:40.761Z,99.90
2018-03-31T05:13:07.395Z,99.90
2018-03-31T05:15:34.004Z,99.90
2018-03-31T05:18:00.535Z,99.90
2018-03-31T05:20:27.048Z,99.90
2018-03-31T05:22:53.636Z,99.90
2018-03-31T05:25:20.191Z,99.90
2018-03-31T05:27:46.773Z,99.90
2018-03-31T05:30:13.419Z,99.90
2018-03-31T05:32:39.940Z,99.90
2018-03-31T05:35:06.524Z,99.90
2018-03-31T05:37:33.044Z,99.90
2018-03-31T05:39:59.655Z,99.90
2018-03-31T05:42:26.179Z,99.90
2018-03-31T05:44:53.592Z,99.90
2018-03-31T05:47:20.111Z,99.90
2018-03-31T05:49:46.688Z,99.90
2018-03-31T05:52:13.324Z,99.90
2018-03-31T05:54:39.923Z,99.90
2018-03-31T05:57:06.447Z,99.90
2018-03-31T05:59:33.041Z,99.90
2018-03-31T06:01:59.572Z,99.90
2018-03-31T06:04:26.205Z,99.90
2018-03-31T06:06:52.787Z,99.90
2018-03-31T06:09:19.312Z,99.90
2018-03-31T06:11:46.632Z,99.90
2018-03-31T06:14:13.168Z,99.90
2018-03-31T06:16:39.757Z,99.90
2018-03-31T06:19:07.092Z,99.90
2018-03-31T06:21:34.410Z,99.90
2018-03-31T06:24:00.918Z,99.90
2018-03-31T06:26:27.556Z,99.90
2018-03-31T06:28:54.178Z,99.90
2018-03-31T06:31:20.787Z,99.90
2018-03-31T06:33:47.299Z,99.90
2018-03-31T06:36:13.807Z,99.90
2018-03-31T06:38:40.409Z,99.90
2018-03-31T06:41:06.924Z,99.90
2018-03-31T06:43:33.444Z,99.90
2018-03-31T06:46:00.903Z,99.90
2018-03-31T06:48:27.411Z,99.90
2018-03-31T06:50:54.012Z,99.90
2018-03-31T06:53:20.580Z,99.90
2018-03-31T06:55:47.107Z,99.90
2018-03-31T06:58:13.699Z,99.90
2018-03-31T07:00:40.281Z,99.90
2018-03-31T07:03:06.807Z,99.90
2018-03-31T07:05:33.398Z,99.90
2018-03-31T07:07:59.923Z,99.90
2018-03-31T07:10:26.495Z,99.90
2018-03-31T07:12:53.074Z,99.90
2018-03-31T07:15:19.632Z,99.90
2018-03-31T07:17:46.142Z,99.90
2018-03-31T07:20:12.719Z,99.90
2018-03-31T07:22:39.229Z,99.90
2018-03-31T07:25:05.816Z,99.90
2018-03-31T07:27:33.097Z,99.90
2018-03-31T07:30:00.427Z,99.90
2018-03-31T07:32:27.027Z,99.90
2018-03-31T07:34:53.605Z,99.90
2018-03-31T07:37:20.191Z,99.90
2018-03-31T07:39:46.711Z,99.90
2018-03-31T07:42:13.379Z,99.90
2018-03-31T07:44:40.874Z,99.90
2018-03-31T07:47:07.460Z,99.90
2018-03-31T07:49:33.969Z,99.90
2018-03-31T07:52:01.310Z,99.90
2018-03-31T07:54:35.838Z,99.90
2018-03-31T07:57:02.642Z,99.90
2018-03-31T07:59:29.226Z,99.90
2018-03-31T08:01:57.477Z,99.90
2018-03-31T08:04:24.187Z,99.90
2018-03-31T08:06:50.769Z,99.90
2018-03-31T08:09:17.355Z,97.80
2018-03-31T08:11:44.819Z,97.80
2018-03-31T08:14:11.500Z,97.10
2018-03-31T08:16:38.078Z,96.40
2018-03-31T08:19:04.638Z,95.30
2018-03-31T08:21:31.267Z,94.20
2018-03-31T08:23:57.853Z,94.20
2018-03-31T08:26:24.429Z,95.50
2018-03-31T08:28:51.340Z,95.90
2018-03-31T08:31:17.846Z,95.30
2018-03-31T08:33:44.386Z,94.90
2018-03-31T08:36:10.998Z,94.80
2018-03-31T08:38:37.524Z,94.50
2018-03-31T08:41:04.045Z,94.60
2018-03-31T08:43:30.707Z,94.30
2018-03-31T08:45:57.304Z,93.90
2018-03-31T08:48:23.920Z,93.40
2018-03-31T08:50:50.448Z,93.50
2018-03-31T08:53:17.024Z,94.00
2018-03-31T08:55:43.527Z,94.00
2018-03-31T08:58:10.684Z,93.10
2018-03-31T09:00:39.905Z,91.40
2018-03-31T09:03:07.185Z,85.10
2018-03-31T09:05:34.812Z,73.60
2018-03-31T09:08:01.319Z,73.60
2018-03-31T09:10:27.859Z,66.30
2018-03-31T09:12:57.183Z,60.90
2018-03-31T09:15:23.828Z,53.60
2018-03-31T09:17:50.726Z,53.00
2018-03-31T09:20:17.333Z,53.50
2018-03-31T09:22:45.783Z,53.90
2018-03-31T09:25:11.775Z,53.80
2018-03-31T09:27:41.532Z,54.90
2018-03-31T09:30:08.059Z,55.10
2018-03-31T09:32:35.617Z,58.60
2018-03-31T09:35:02.128Z,58.30
2018-03-31T09:37:29.994Z,59.70
2018-03-31T09:39:57.189Z,59.50
2018-03-31T09:42:25.549Z,59.60
2018-03-31T09:44:55.070Z,59.20
2018-03-31T09:47:21.597Z,58.80
2018-03-31T09:49:49.648Z,58.80
2018-03-31T09:52:16.832Z,61.70
2018-03-31T09:54:43.403Z,63.30
2018-03-31T09:57:09.935Z,63.20
2018-03-31T09:59:37.324Z,65.50
2018-03-31T10:02:04.309Z,65.50
2018-03-31T10:04:30.816Z,67.80
2018-03-31T10:06:57.909Z,70.30
2018-03-31T10:09:25.442Z,72.40
2018-03-31T10:11:52.496Z,72.30
2018-03-31T10:14:23.442Z,74.90
2018-03-31T10:16:51.542Z,75.00
2018-03-31T10:19:18.412Z,76.90
2018-03-31T10:21:46.969Z,78.80
2018-03-31T10:24:16.487Z,77.40
2018-03-31T10:26:43.435Z,76.50
2018-03-31T10:29:11.699Z,75.70
2018-03-31T10:31:38.953Z,76.50
2018-03-31T10:34:05.789Z,76.80
2018-03-31T10:36:33.048Z,67.40
2018-03-31T10:39:00.398Z,66.50
2018-03-31T10:41:30.610Z,66.60
2018-03-31T10:44:02.578Z,70.80
2018-03-31T10:46:36.488Z,67.30
2018-03-31T10:49:03.083Z,67.70
2018-03-31T10:51:29.683Z,66.10
2018-03-31T10:53:56.931Z,65.40
2018-03-31T10:56:24.255Z,61.40
2018-03-31T10:58:50.836Z,61.40
2018-03-31T11:01:17.420Z,62.10
2018-03-31T11:03:44.017Z,61.40
2018-03-31T11:06:10.536Z,62.60
2018-03-31T11:08:37.132Z,60.40
2018-03-31T11:11:07.135Z,62.20
2018-03-31T11:13:36.440Z,61.30
2018-03-31T11:16:03.289Z,59.70
2018-03-31T11:18:33.384Z,60.10
2018-03-31T11:21:05.527Z,56.60
2018-03-31T11:23:32.750Z,56.20
2018-03-31T11:25:59.261Z,54.80
2018-03-31T11:28:25.828Z,55.00
2018-03-31T11:30:52.452Z,55.10
2018-03-31T11:33:27.961Z,55.10
2018-03-31T11:36:04.180Z,54.60
2018-03-31T11:38:41.738Z,55.00
2018-03-31T11:41:18.402Z,54.90
2018-03-31T11:43:48.654Z,54.20
2018-03-31T11:46:15.635Z,56.10
2018-03-31T11:48:42.922Z,57.70
2018-03-31T11:51:22.151Z,57.70
2018-03-31T11:53:54.044Z,56.90
2018-03-31T11:56:20.612Z,53.10
2018-03-31T11:58:53.659Z,53.60
2018-03-31T12:01:20.298Z,53.60
2018-03-31T12:03:46.862Z,50.90
2018-03-31T12:06:13.465Z,51.40
2018-03-31T12:08:39.983Z,50.30
2018-03-31T12:11:06.579Z,53.30
2018-03-31T12:13:33.154Z,51.30
2018-03-31T12:16:01.010Z,52.10
2018-03-31T12:18:31.756Z,51.80
2018-03-31T12:21:00.091Z,51.80
2018-03-31T12:23:32.308Z,50.90
2018-03-31T12:25:58.892Z,50.90
2018-03-31T12:28:31.706Z,51.10
2018-03-31T12:30:59.044Z,52.40
2018-03-31T12:33:25.539Z,51.80
2018-03-31T12:35:52.115Z,49.60
2018-03-31T12:38:22.108Z,50.10
2018-03-31T12:40:48.700Z,49.40
2018-03-31T12:43:15.215Z,49.80
2018-03-31T12:45:41.783Z,49.10
2018-03-31T12:48:08.372Z,48.90
2018-03-31T12:50:34.915Z,49.50
2018-03-31T12:53:01.496Z,48.20
2018-03-31T12:55:28.160Z,46.50
2018-03-31T12:57:54.671Z,45.60
2018-03-31T13:00:21.278Z,46.40
2018-03-31T13:02:47.908Z,45.10
2018-03-31T13:05:14.508Z,41.70
2018-03-31T13:07:41.096Z,43.90
2018-03-31T13:10:08.388Z,44.60
2018-03-31T13:12:34.981Z,44.60
2018-03-31T13:15:01.613Z,45.00
2018-03-31T13:17:28.132Z,45.40
2018-03-31T13:19:54.720Z,45.20
2018-03-31T13:22:22.047Z,46.10
2018-03-31T13:24:48.645Z,46.20
2018-03-31T13:27:15.287Z,45.60
2018-03-31T13:29:41.795Z,44.80
2018-03-31T13:32:09.126Z,47.10
2018-03-31T13:34:36.509Z,47.10
2018-03-31T13:37:03.096Z,47.10
2018-03-31T13:39:29.599Z,45.90
2018-03-31T13:41:56.256Z,48.20
2018-03-31T13:44:22.845Z,47.20
2018-03-31T13:46:49.468Z,46.20
2018-03-31T13:49:16.020Z,46.40
2018-03-31T13:51:42.572Z,44.60
2018-03-31T13:54:09.889Z,44.30
2018-03-31T13:56:36.395Z,44.40
2018-03-31T13:59:02.969Z,45.10
2018-03-31T14:01:29.606Z,44.90
2018-03-31T14:03:56.109Z,46.30
2018-03-31T14:06:22.697Z,44.60
2018-03-31T14:08:50.033Z,44.70
2018-03-31T14:11:16.585Z,44.80
2018-03-31T14:13:43.221Z,44.40
2018-03-31T14:16:09.821Z,44.20
2018-03-31T14:18:36.352Z,43.50
2018-03-31T14:21:02.984Z,43.30
2018-03-31T14:23:30.424Z,43.60
2018-03-31T14:25:57.021Z,44.40
2018-03-31T14:28:23.543Z,42.10
2018-03-31T14:30:50.128Z,41.90
2018-03-31T14:33:17.440Z,42.60
2018-03-31T14:35:44.019Z,42.60
2018-03-31T14:38:11.345Z,44.10
2018-03-31T14:40:37.989Z,44.10
2018-03-31T14:43:04.498Z,44.00
2018-03-31T14:45:31.112Z,43.40
2018-03-31T14:47:57.699Z,44.80
2018-03-31T14:50:24.231Z,43.30
2018-03-31T14:52:50.811Z,43.60
2018-03-31T14:55:17.388Z,43.80
2018-03-31T14:57:43.933Z,44.20
2018-03-31T15:00:10.608Z,43.50
2018-03-31T15:02:37.211Z,43.00
2018-03-31T15:05:03.860Z,43.70
2018-03-31T15:07:30.371Z,42.40
2018-03-31T15:09:56.917Z,43.80
2018-03-31T15:12:23.543Z,42.00
2018-03-31T15:14:50.056Z,42.10
2018-03-31T15:17:16.656Z,41.60
2018-03-31T15:19:43.196Z,39.90
2018-03-31T15:22:09.833Z,40.50
2018-03-31T15:24:36.347Z,42.00
2018-03-31T15:27:02.933Z,42.70
2018-03-31T15:29:30.215Z,44.20
2018-03-31T15:31:56.791Z,44.20
2018-03-31T15:34:24.277Z,44.60
2018-03-31T15:36:51.664Z,43.40
2018-03-31T15:39:18.185Z,43.40
2018-03-31T15:41:44.768Z,44.60
2018-03-31T15:44:11.279Z,44.30
2018-03-31T15:46:37.930Z,44.20
2018-03-31T15:49:04.490Z,44.20
2018-03-31T15:51:31.096Z,43.90
2018-03-31T15:53:57.610Z,43.30
2018-03-31T15:56:24.213Z,43.40
2018-03-31T15:58:50.812Z,44.10
2018-03-31T16:01:17.382Z,43.10
2018-03-31T16:03:43.965Z,42.30
2018-03-31T16:06:10.556Z,42.60
2018-03-31T16:08:37.083Z,42.30
2018-03-31T16:11:03.668Z,41.80
2018-03-31T16:13:30.253Z,41.90
2018-03-31T16:15:56.849Z,42.00
2018-03-31T16:18:23.372Z,41.70
2018-03-31T16:20:50.703Z,41.10
2018-03-31T16:23:17.276Z,41.00
2018-03-31T16:25:44.596Z,40.60
2018-03-31T16:28:11.210Z,40.50
2018-03-31T16:30:37.753Z,40.90
2018-03-31T16:33:04.271Z,42.40
2018-03-31T16:35:30.903Z,43.00
2018-03-31T16:37:57.414Z,42.90
2018-03-31T16:40:23.978Z,43.00
2018-03-31T16:42:50.559Z,43.10
2018-03-31T16:45:17.150Z,42.80
2018-03-31T16:47:43.757Z,42.10
2018-03-31T16:50:11.100Z,43.00
2018-03-31T16:52:37.607Z,42.80
2018-03-31T16:55:04.191Z,42.80
2018-03-31T16:57:30.859Z,44.30
2018-03-31T16:59:57.512Z,44.20
2018-03-31T17:02:24.103Z,43.40
2018-03-31T17:04:51.420Z,45.20
2018-03-31T17:07:17.934Z,45.20
2018-03-31T17:09:44.525Z,45.30
2018-03-31T17:12:11.850Z,47.50
2018-03-31T17:14:38.353Z,47.20
2018-03-31T17:17:04.993Z,46.00
2018-03-31T17:19:31.581Z,46.40
2018-03-31T17:21:58.183Z,46.40
2018-03-31T17:24:24.771Z,46.30
2018-03-31T17:26:52.101Z,46.50
2018-03-31T17:29:18.705Z,46.40
2018-03-31T17:31:45.236Z,46.20
2018-03-31T17:34:11.764Z,46.20
2018-03-31T17:36:38.344Z,46.30
2018-03-31T17:39:05.026Z,47.20
2018-03-31T17:41:31.590Z,47.90
2018-03-31T17:43:58.107Z,48.40
2018-03-31T17:46:24.708Z,48.30
2018-03-31T17:48:51.287Z,48.70
2018-03-31T17:51:17.813Z,49.10
2018-03-31T17:53:45.125Z,49.90
2018-03-31T17:56:22.131Z,49.80
2018-03-31T17:58:49.601Z,50.10
2018-03-31T18:01:16.896Z,50.10
2018-03-31T18:03:43.504Z,50.10
2018-03-31T18:06:10.054Z,50.80
2018-03-31T18:08:36.636Z,51.60
2018-03-31T18:11:03.213Z,51.50
2018-03-31T18:13:30.472Z,52.30
2018-03-31T18:15:57.072Z,52.20
2018-03-31T18:18:23.576Z,52.50
2018-03-31T18:20:50.177Z,52.00
2018-03-31T18:23:17.567Z,53.40
2018-03-31T18:25:44.165Z,53.40
2018-03-31T18:28:11.427Z,53.10
2018-03-31T18:30:38.751Z,53.50
2018-03-31T18:33:05.396Z,53.50
2018-03-31T18:35:31.901Z,53.70
2018-03-31T18:37:58.480Z,53.20
2018-03-31T18:40:25.808Z,54.60
2018-03-31T18:42:52.393Z,54.60
2018-03-31T18:45:18.959Z,55.70
2018-03-31T18:47:45.600Z,57.10
2018-03-31T18:50:12.105Z,56.60
2018-03-31T18:52:38.670Z,57.20
2018-03-31T18:55:05.189Z,56.50
2018-03-31T18:57:31.767Z,56.60
2018-03-31T18:59:58.277Z,57.10
2018-03-31T19:02:24.855Z,57.50
2018-03-31T19:04:51.364Z,57.10
2018-03-31T19:07:18.010Z,58.00
2018-03-31T19:09:44.525Z,57.70
2018-03-31T19:12:11.102Z,57.80
2018-03-31T19:14:42.520Z,59.30
2018-03-31T19:17:14.020Z,60.30
2018-03-31T19:19:40.589Z,61.30
2018-03-31T19:22:07.107Z,61.40
2018-03-31T19:24:40.401Z,63.50
2018-03-31T19:27:07.660Z,64.70
2018-03-31T19:29:34.220Z,64.70
2018-03-31T19:32:00.801Z,66.20
2018-03-31T19:34:27.380Z,66.70
2018-03-31T19:36:53.944Z,68.10
2018-03-31T19:39:26.260Z,68.70
2018-03-31T19:41:52.935Z,69.50
2018-03-31T19:44:19.451Z,70.10
2018-03-31T19:46:46.047Z,69.60
2018-03-31T19:49:12.545Z,71.30
2018-03-31T19:51:39.128Z,72.30
2018-03-31T19:54:05.647Z,72.50
2018-03-31T19:56:32.219Z,72.80
2018-03-31T19:58:58.793Z,72.70
2018-03-31T20:01:25.383Z,72.20
2018-03-31T20:03:51.887Z,70.40
2018-03-31T20:06:18.463Z,68.70
2018-03-31T20:08:45.037Z,68.90
2018-03-31T20:11:11.561Z,68.50
2018-03-31T20:13:38.187Z,70.00
2018-03-31T20:16:04.724Z,70.10
2018-03-31T20:18:31.268Z,71.00
2018-03-31T20:20:58.612Z,70.20
2018-03-31T20:23:25.139Z,70.10
2018-03-31T20:25:51.654Z,70.70
2018-03-31T20:28:18.233Z,70.50
2018-03-31T20:30:44.872Z,70.70
2018-03-31T20:33:11.447Z,72.10
2018-03-31T20:35:38.022Z,72.40
2018-03-31T20:38:04.555Z,72.20
2018-03-31T20:40:31.059Z,72.60
2018-03-31T20:42:57.640Z,72.70
2018-03-31T20:45:24.146Z,74.40
2018-03-31T20:47:50.715Z,74.50
2018-03-31T20:50:17.298Z,74.60
2018-03-31T20:52:43.872Z,76.00
2018-03-31T20:55:10.432Z,74.90
2018-03-31T20:57:37.011Z,75.20
2018-03-31T21:00:03.532Z,75.40
2018-03-31T21:02:30.780Z,75.10
2018-03-31T21:04:58.087Z,75.40
2018-03-31T21:07:24.589Z,75.40
2018-03-31T21:09:51.172Z,76.30
2018-03-31T21:12:17.673Z,77.80
2018-03-31T21:14:44.184Z,80.30
2018-03-31T21:17:10.764Z,81.50
2018-03-31T21:19:37.277Z,84.50
2018-03-31T21:22:03.853Z,86.20
2018-03-31T21:24:30.365Z,89.10
2018-03-31T21:26:56.941Z,89.80
2018-03-31T21:29:23.519Z,89.20
2018-03-31T21:31:50.103Z,88.90
2018-03-31T21:34:16.678Z,90.00
2018-03-31T21:36:43.995Z,91.40
2018-03-31T21:39:15.959Z,91.40
2018-03-31T21:41:43.824Z,93.80
2018-03-31T21:44:10.455Z,93.80
2018-03-31T21:46:37.013Z,93.80
2018-03-31T21:49:03.593Z,92.90
2018-03-31T21:51:30.178Z,91.80
2018-03-31T21:53:56.774Z,91.90
2018-03-31T21:56:23.384Z,92.00
2018-03-31T21:58:50.645Z,92.10
2018-03-31T22:01:17.982Z,92.40
2018-03-31T22:03:44.501Z,92.30
2018-03-31T22:06:11.093Z,91.80
2018-03-31T22:08:37.677Z,92.30
2018-03-31T22:11:05.060Z,92.50
2018-03-31T22:13:47.302Z,92.10
2018-03-31T22:16:13.878Z,92.50
2018-03-31T22:18:40.404Z,92.80
2018-03-31T22:21:06.999Z,93.00
2018-03-31T22:23:33.542Z,93.20
2018-03-31T22:26:00.064Z,94.10
2018-03-31T22:28:27.389Z,95.20
2018-03-31T22:30:53.908Z,95.20
2018-03-31T22:33:20.492Z,95.60
2018-03-31T22:35:47.010Z,95.70
2018-03-31T22:38:14.414Z,96.10
2018-03-31T22:40:40.919Z,96.10
2018-03-31T22:43:08.185Z,97.00
2018-03-31T22:45:34.761Z,97.00
2018-03-31T22:48:01.352Z,96.90
2018-03-31T22:50:28.614Z,97.70
2018-03-31T22:52:55.187Z,97.70
2018-03-31T22:55:21.755Z,97.70
2018-03-31T22:57:48.287Z,97.70
2018-03-31T23:00:14.859Z,99.00
2018-03-31T23:02:42.103Z,99.90
2018-03-31T23:05:09.356Z,99.90
2018-03-31T23:07:36.689Z,99.90
2018-03-31T23:10:03.330Z,99.90
2018-03-31T23:12:29.859Z,99.90
2018-03-31T23:14:56.436Z,99.90
2018-03-31T23:17:23.681Z,99.90
2018-03-31T23:19:51.026Z,99.90
2018-03-31T23:22:18.339Z,99.90
2018-03-31T23:24:44.924Z,99.90
2018-03-31T23:27:12.183Z,99.90
2018-03-31T23:29:38.699Z,99.90
2018-03-31T23:32:05.286Z,99.90
2018-03-31T23:34:31.859Z,99.90
2018-03-31T23:36:58.375Z,99.90
2018-03-31T23:39:24.941Z,99.90
2018-03-31T23:42:02.429Z,99.90
2018-03-31T23:44:30.160Z,99.90
2018-03-31T23:47:05.627Z,99.90
2018-03-31T23:49:40.425Z,99.90
2018-03-31T23:52:15.742Z,99.90
2018-03-31T23:54:42.987Z,99.90
2018-03-31T23:57:19.143Z,99.90
2018-03-31T23:59:55.305Z,99.90
